createdAt,value
2018-07-28T00:01:37.189Z,82.10
2018-07-28T00:04:05.705Z,82.10
2018-07-28T00:06:34.104Z,82.00
2018-07-28T00:09:02.557Z,82.80
2018-07-28T00:11:30.952Z,82.20
2018-07-28T00:13:59.376Z,81.60
2018-07-28T00:16:27.784Z,80.70
2018-07-28T00:18:56.262Z,80.10
2018-07-28T00:21:24.706Z,78.50
2018-07-28T00:23:53.085Z,78.00
2018-07-28T00:26:21.576Z,78.00
2018-07-28T00:28:50.586Z,78.30
2018-07-28T00:31:19.712Z,78.20
2018-07-28T00:33:48.120Z,78.60
2018-07-28T00:36:16.543Z,79.10
2018-07-28T00:38:44.944Z,79.30
2018-07-28T00:41:13.379Z,79.80
2018-07-28T00:43:41.773Z,80.80
2018-07-28T00:46:10.508Z,79.90
2018-07-28T00:48:38.913Z,79.80
2018-07-28T00:51:07.320Z,80.60
2018-07-28T00:53:35.903Z,81.90
2018-07-28T00:56:04.298Z,81.70
2018-07-28T00:58:32.689Z,81.70
2018-07-28T01:01:01.164Z,82.20
2018-07-28T01:03:30.954Z,82.70
2018-07-28T01:05:59.509Z,83.10
2018-07-28T01:08:27.913Z,84.00
2018-07-28T01:10:56.331Z,85.50
2018-07-28T01:13:24.865Z,85.50
2018-07-28T01:15:53.244Z,86.30
2018-07-28T01:18:21.669Z,86.30
2018-07-28T01:20:50.243Z,86.50
2018-07-28T01:23:18.668Z,86.90
2018-07-28T01:25:47.085Z,87.50
2018-07-28T01:28:15.475Z,87.40
2018-07-28T01:30:43.897Z,89.90
2018-07-28T01:33:12.419Z,90.50
2018-07-28T01:35:40.888Z,90.60
2018-07-28T01:38:09.275Z,90.70
2018-07-28T01:40:37.952Z,91.40
2018-07-28T01:43:06.320Z,92.40
2018-07-28T01:45:34.712Z,93.10
2018-07-28T01:48:03.300Z,93.30
2018-07-28T01:50:31.694Z,95.80
2018-07-28T01:53:00.138Z,95.70
2018-07-28T01:55:28.544Z,94.60
2018-07-28T01:57:56.933Z,94.40
2018-07-28T02:00:25.316Z,94.40
2018-07-28T02:02:53.753Z,95.10
2018-07-28T02:05:22.187Z,97.30
2018-07-28T02:07:50.619Z,98.70
2018-07-28T02:10:19.080Z,97.90
2018-07-28T02:12:47.495Z,99.50
2018-07-28T02:15:16.015Z,99.90
2018-07-28T02:17:44.448Z,99.90
2018-07-28T02:20:12.832Z,99.90
2018-07-28T02:22:41.233Z,99.90
2018-07-28T02:25:10.820Z,99.90
2018-07-28T02:27:39.483Z,99.90
2018-07-28T02:30:08.288Z,99.90
2018-07-28T02:32:36.985Z,99.90
2018-07-28T02:35:06.369Z,99.90
2018-07-28T02:37:34.772Z,99.90
2018-07-28T02:40:03.269Z,99.90
2018-07-28T02:42:31.685Z,99.90
2018-07-28T02:45:00.101Z,99.90
2018-07-28T02:47:28.661Z,99.90
2018-07-28T02:49:57.052Z,99.90
2018-07-28T02:52:25.537Z,99.90
2018-07-28T02:54:53.996Z,99.90
2018-07-28T02:57:22.404Z,99.90
2018-07-28T02:59:51.076Z,99.90
2018-07-28T03:02:19.480Z,99.90
2018-07-28T03:04:47.900Z,99.90
2018-07-28T03:07:16.389Z,99.90
2018-07-28T03:09:44.777Z,99.90
2018-07-28T03:12:13.213Z,99.90
2018-07-28T03:14:41.621Z,99.90
2018-07-28T03:17:10.025Z,99.90
2018-07-28T03:19:38.722Z,99.90
2018-07-28T03:22:07.606Z,99.90
2018-07-28T03:24:36.021Z,99.90
2018-07-28T03:27:05.105Z,99.90
2018-07-28T03:32:02.153Z,99.90
2018-07-28T03:34:30.560Z,99.90
2018-07-28T03:39:27.064Z,99.90
2018-07-28T03:41:55.487Z,99.90
2018-07-28T03:44:23.911Z,99.90
2018-07-28T03:46:52.362Z,99.90
2018-07-28T03:49:20.835Z,99.90
2018-07-28T03:51:49.139Z,99.90
2018-07-28T03:54:17.648Z,99.90
2018-07-28T03:56:46.042Z,99.90
2018-07-28T03:59:14.520Z,99.90
2018-07-28T04:01:42.904Z,99.90
2018-07-28T04:04:11.341Z,99.90
2018-07-28T04:06:39.721Z,99.90
2018-07-28T04:09:09.444Z,99.90
2018-07-28T04:11:37.884Z,99.90
2018-07-28T04:14:06.397Z,99.90
2018-07-28T04:16:36.044Z,99.90
2018-07-28T04:19:04.692Z,99.90
2018-07-28T04:21:33.151Z,99.90
2018-07-28T04:24:01.553Z,99.90
2018-07-28T04:26:30.033Z,99.90
2018-07-28T04:28:58.448Z,99.90
2018-07-28T04:31:26.848Z,99.90
2018-07-28T04:33:55.352Z,99.90
2018-07-28T04:36:23.815Z,99.90
2018-07-28T04:38:52.205Z,99.90
2018-07-28T04:41:20.589Z,99.90
2018-07-28T04:43:49.022Z,99.90
2018-07-28T04:46:17.434Z,99.90
2018-07-28T04:48:45.833Z,99.90
2018-07-28T04:51:14.233Z,99.90
2018-07-28T04:53:42.615Z,99.90
2018-07-28T04:56:11.030Z,99.90
2018-07-28T04:58:39.440Z,99.90
2018-07-28T05:01:08.132Z,99.90
2018-07-28T05:03:36.541Z,99.90
2018-07-28T05:06:04.948Z,99.90
2018-07-28T05:08:33.352Z,99.90
2018-07-28T05:11:01.749Z,99.90
2018-07-28T05:13:30.125Z,99.90
2018-07-28T05:15:58.608Z,99.90
2018-07-28T05:18:26.951Z,99.90
2018-07-28T05:20:55.421Z,99.90
2018-07-28T05:23:23.846Z,99.90
2018-07-28T05:25:52.247Z,99.90
2018-07-28T05:28:20.632Z,99.90
2018-07-28T05:30:49.078Z,99.90
2018-07-28T05:33:17.476Z,99.90
2018-07-28T05:35:45.877Z,99.90
2018-07-28T05:38:14.282Z,99.90
2018-07-28T05:40:42.707Z,99.90
2018-07-28T05:43:11.120Z,99.90
2018-07-28T05:45:39.518Z,99.90
2018-07-28T05:48:07.963Z,99.90
2018-07-28T05:50:36.373Z,99.90
2018-07-28T05:53:04.978Z,99.90
2018-07-28T05:55:33.368Z,99.90
2018-07-28T05:58:01.792Z,99.90
2018-07-28T06:00:30.232Z,99.90
2018-07-28T06:03:03.199Z,99.90
2018-07-28T06:05:31.582Z,99.90
2018-07-28T06:07:59.986Z,99.90
2018-07-28T06:10:28.467Z,99.90
2018-07-28T06:12:56.868Z,99.90
2018-07-28T06:15:25.401Z,99.90
2018-07-28T06:17:54.216Z,99.90
2018-07-28T06:20:22.642Z,99.90
2018-07-28T06:22:53.356Z,99.90
2018-07-28T06:25:21.769Z,99.90
2018-07-28T06:27:50.181Z,99.90
2018-07-28T06:30:18.641Z,99.90
2018-07-28T06:32:47.056Z,99.90
2018-07-28T06:35:15.452Z,99.90
2018-07-28T06:37:43.876Z,99.90
2018-07-28T06:40:12.320Z,99.90
2018-07-28T06:45:08.904Z,99.90
2018-07-28T06:47:37.401Z,99.90
2018-07-28T06:50:05.821Z,99.90
2018-07-28T06:52:34.270Z,99.90
2018-07-28T06:55:02.713Z,99.90
2018-07-28T06:57:31.109Z,99.90
2018-07-28T06:59:59.540Z,99.90
2018-07-28T07:02:28.024Z,99.90
2018-07-28T07:04:56.444Z,99.90
2018-07-28T07:07:25.244Z,99.90
2018-07-28T07:09:53.648Z,99.90
2018-07-28T07:12:22.201Z,99.90
2018-07-28T07:14:50.600Z,99.90
2018-07-28T07:17:18.992Z,99.90
2018-07-28T07:19:47.424Z,99.90
2018-07-28T07:22:15.852Z,99.90
2018-07-28T07:24:44.279Z,99.90
2018-07-28T07:27:12.724Z,99.90
2018-07-28T07:29:41.248Z,99.90
2018-07-28T07:32:09.748Z,99.90
2018-07-28T07:34:38.221Z,99.90
2018-07-28T07:37:06.773Z,99.90
2018-07-28T07:39:35.172Z,99.90
2018-07-28T07:42:03.657Z,99.90
2018-07-28T07:44:32.057Z,99.90
2018-07-28T07:47:00.493Z,99.90
2018-07-28T07:49:28.991Z,99.90
2018-07-28T07:51:57.553Z,99.90
2018-07-28T07:54:25.964Z,99.90
2018-07-28T07:56:54.388Z,99.90
2018-07-28T08:01:50.896Z,99.90
2018-07-28T08:04:19.299Z,99.90
2018-07-28T08:06:47.741Z,99.90
2018-07-28T08:09:16.154Z,99.90
2018-07-28T08:16:40.805Z,99.90
2018-07-28T08:19:09.236Z,99.90
2018-07-28T08:21:37.756Z,99.90
2018-07-28T08:24:06.316Z,99.90
2018-07-28T08:26:34.736Z,99.90
2018-07-28T08:29:03.152Z,99.90
2018-07-28T08:31:31.583Z,99.90
2018-07-28T08:34:00.053Z,99.90
2018-07-28T08:36:28.484Z,99.90
2018-07-28T08:38:57.072Z,99.90
2018-07-28T08:41:25.480Z,99.90
2018-07-28T08:43:53.888Z,99.90
2018-07-28T08:46:22.312Z,99.90
2018-07-28T08:48:50.722Z,99.90
2018-07-28T08:53:47.248Z,99.90
2018-07-28T08:56:15.653Z,99.90
2018-07-28T08:58:44.093Z,99.90
2018-07-28T09:01:12.541Z,99.90
2018-07-28T09:03:40.960Z,99.90
2018-07-28T09:06:09.401Z,99.90
2018-07-28T09:08:37.824Z,99.90
2018-07-28T09:11:06.256Z,99.90
2018-07-28T09:13:34.650Z,99.90
2018-07-28T09:16:03.204Z,99.90
2018-07-28T09:18:31.912Z,99.90
2018-07-28T09:21:00.326Z,99.90
2018-07-28T09:23:28.810Z,99.90
2018-07-28T09:25:57.214Z,99.90
2018-07-28T09:28:25.623Z,99.90
2018-07-28T09:30:54.053Z,99.90
2018-07-28T09:33:22.436Z,99.90
2018-07-28T09:35:50.968Z,99.90
2018-07-28T09:38:19.391Z,99.90
2018-07-28T09:40:47.928Z,99.90
2018-07-28T09:43:16.540Z,99.90
2018-07-28T09:45:44.938Z,99.90
2018-07-28T09:48:13.911Z,99.90
2018-07-28T09:50:42.522Z,99.90
2018-07-28T09:53:10.931Z,99.90
2018-07-28T09:55:39.340Z,99.90
2018-07-28T09:58:08.068Z,99.90
2018-07-28T10:00:41.973Z,99.90
2018-07-28T10:03:10.412Z,99.90
2018-07-28T10:05:39.128Z,99.90
2018-07-28T10:08:07.527Z,99.90
2018-07-28T10:10:35.941Z,99.90
2018-07-28T10:13:04.376Z,99.90
2018-07-28T10:15:32.780Z,99.90
2018-07-28T10:18:01.197Z,99.90
2018-07-28T10:20:29.598Z,99.90
2018-07-28T10:22:58.061Z,99.90
2018-07-28T10:25:26.749Z,99.90
2018-07-28T10:27:55.160Z,99.90
2018-07-28T10:30:23.771Z,99.90
2018-07-28T10:32:52.196Z,99.90
2018-07-28T10:35:20.612Z,99.90
2018-07-28T10:37:49.024Z,99.90
2018-07-28T10:40:17.441Z,99.90
2018-07-28T10:42:45.899Z,99.90
2018-07-28T10:45:14.387Z,99.90
2018-07-28T10:47:42.785Z,99.90
2018-07-28T10:52:39.357Z,99.90
2018-07-28T10:55:07.812Z,99.90
2018-07-28T10:57:36.282Z,99.90
2018-07-28T11:00:06.468Z,99.90
2018-07-28T11:02:34.963Z,99.90
2018-07-28T11:05:03.486Z,99.90
2018-07-28T11:09:59.969Z,99.90
2018-07-28T11:12:28.405Z,99.90
2018-07-28T11:14:56.931Z,99.90
2018-07-28T11:17:25.444Z,99.90
2018-07-28T11:19:53.892Z,99.90
2018-07-28T11:22:22.287Z,99.90
2018-07-28T11:24:51.312Z,99.90
2018-07-28T11:27:19.806Z,99.90
2018-07-28T11:29:48.234Z,99.90
2018-07-28T11:32:27.948Z,99.90
2018-07-28T11:35:07.672Z,99.90
2018-07-28T11:37:47.497Z,99.90
2018-07-28T11:40:27.314Z,99.90
2018-07-28T11:43:07.281Z,99.90
2018-07-28T11:45:35.696Z,99.90
2018-07-28T11:48:04.146Z,99.50
2018-07-28T11:50:32.721Z,98.00
2018-07-28T11:53:01.118Z,98.50
2018-07-28T11:55:29.586Z,98.80
2018-07-28T11:57:58.018Z,99.90
2018-07-28T12:00:26.714Z,99.50
2018-07-28T12:02:55.120Z,99.20
2018-07-28T12:05:23.532Z,97.90
2018-07-28T12:07:51.966Z,95.90
2018-07-28T12:10:20.372Z,97.40
2018-07-28T12:12:48.818Z,98.50
2018-07-28T12:15:17.274Z,97.70
2018-07-28T12:17:45.674Z,96.90
2018-07-28T12:20:14.104Z,97.70
2018-07-28T12:25:10.965Z,99.90
2018-07-28T12:27:39.401Z,99.90
2018-07-28T12:30:09.519Z,99.90
2018-07-28T12:32:37.936Z,99.90
2018-07-28T12:35:06.594Z,99.90
2018-07-28T12:37:34.989Z,99.90
2018-07-28T12:40:03.580Z,99.90
2018-07-28T12:42:31.988Z,99.90
2018-07-28T12:45:00.385Z,99.90
2018-07-28T12:47:28.834Z,99.20
2018-07-28T12:49:57.276Z,99.40
2018-07-28T12:52:25.733Z,99.90
2018-07-28T12:54:58.124Z,99.90
2018-07-28T12:57:27.280Z,99.90
2018-07-28T12:59:55.702Z,99.90
2018-07-28T13:02:24.218Z,99.90
2018-07-28T13:04:52.663Z,99.90
2018-07-28T13:07:21.076Z,99.90
2018-07-28T13:09:49.581Z,99.90
2018-07-28T13:14:46.148Z,99.90
2018-07-28T13:17:14.605Z,99.90
2018-07-28T13:19:43.015Z,99.90
2018-07-28T13:22:11.537Z,99.90
2018-07-28T13:24:39.956Z,99.90
2018-07-28T13:27:08.426Z,99.90
2018-07-28T13:29:37.006Z,99.90
2018-07-28T13:32:05.660Z,99.90
2018-07-28T13:34:34.064Z,99.90
2018-07-28T13:37:02.632Z,99.90
2018-07-28T13:39:31.163Z,99.90
2018-07-28T13:41:59.618Z,99.80
2018-07-28T13:46:56.188Z,99.90
2018-07-28T13:49:24.652Z,99.90
2018-07-28T13:51:53.053Z,99.90
2018-07-28T13:54:21.529Z,99.90
2018-07-28T13:56:50.814Z,99.90
2018-07-28T13:59:19.246Z,99.90
2018-07-28T14:01:47.676Z,99.90
2018-07-28T14:04:16.100Z,99.90
2018-07-28T14:06:44.507Z,99.90
2018-07-28T14:11:41.101Z,99.90
2018-07-28T14:14:09.513Z,99.90
2018-07-28T14:16:38.232Z,99.90
2018-07-28T14:19:06.678Z,99.90
2018-07-28T14:24:03.449Z,99.90
2018-07-28T14:26:31.868Z,99.90
2018-07-28T14:29:00.414Z,99.90
2018-07-28T14:33:57.305Z,99.90
2018-07-28T14:36:25.716Z,99.90
2018-07-28T14:38:54.567Z,99.90
2018-07-28T14:41:23.303Z,99.90
2018-07-28T14:43:52.178Z,99.90
2018-07-28T14:46:20.658Z,99.90
2018-07-28T14:48:49.068Z,99.90
2018-07-28T14:56:13.740Z,99.90
2018-07-28T14:58:42.418Z,99.90
2018-07-28T15:01:11.033Z,99.90
2018-07-28T15:03:39.484Z,99.90
2018-07-28T15:06:08.029Z,99.80
2018-07-28T15:08:36.548Z,99.30
2018-07-28T15:11:04.982Z,99.90
2018-07-28T15:16:01.532Z,99.40
2018-07-28T15:18:29.958Z,99.60
2018-07-28T15:20:58.433Z,98.70
2018-07-28T15:23:26.886Z,98.60
2018-07-28T15:25:55.349Z,99.30
2018-07-28T15:28:23.751Z,98.50
2018-07-28T15:30:52.214Z,98.00
2018-07-28T15:33:20.645Z,97.50
2018-07-28T15:35:49.100Z,97.10
2018-07-28T15:38:17.553Z,97.30
2018-07-28T15:40:46.091Z,97.60
2018-07-28T15:43:14.560Z,97.70
2018-07-28T15:45:43.029Z,97.60
2018-07-28T15:48:11.669Z,97.30
2018-07-28T15:50:40.159Z,96.90
2018-07-28T15:53:08.602Z,97.30
2018-07-28T15:55:37.171Z,98.20
2018-07-28T15:58:05.976Z,98.30
2018-07-28T16:00:34.385Z,98.30
2018-07-28T16:03:02.790Z,98.40
2018-07-28T16:05:31.232Z,98.00
2018-07-28T16:07:59.753Z,98.50
2018-07-28T16:10:28.175Z,98.30
2018-07-28T16:12:56.713Z,98.70
2018-07-28T16:15:25.173Z,99.30
2018-07-28T16:20:21.740Z,99.80
2018-07-28T16:22:50.401Z,99.90
2018-07-28T16:25:20.066Z,99.90
2018-07-28T16:27:48.643Z,99.90
2018-07-28T16:30:16.972Z,99.90
2018-07-28T16:32:48.393Z,99.90
2018-07-28T16:35:16.944Z,99.90
2018-07-28T16:37:45.432Z,99.90
2018-07-28T16:40:14.667Z,99.90
2018-07-28T16:42:43.027Z,99.90
2018-07-28T16:45:12.012Z,99.90
2018-07-28T16:47:40.608Z,99.90
2018-07-28T16:50:09.253Z,99.90
2018-07-28T16:52:38.503Z,99.90
2018-07-28T16:55:07.056Z,99.90
2018-07-28T16:57:35.466Z,99.90
2018-07-28T17:00:04.635Z,99.90
2018-07-28T17:02:33.120Z,99.90
2018-07-28T17:05:01.602Z,99.90
2018-07-28T17:07:30.194Z,99.90
2018-07-28T17:09:58.615Z,99.90
2018-07-28T17:12:27.570Z,99.90
2018-07-28T17:14:56.005Z,99.90
2018-07-28T17:17:24.420Z,99.90
2018-07-28T17:19:52.842Z,99.90
2018-07-28T17:22:21.470Z,98.80
2018-07-28T17:24:49.955Z,98.70
2018-07-28T17:27:18.369Z,98.70
2018-07-28T17:32:15.296Z,97.70
2018-07-28T17:34:43.789Z,97.30
2018-07-28T17:37:12.264Z,96.50
2018-07-28T17:39:41.637Z,96.80
2018-07-28T17:42:10.217Z,96.50
2018-07-28T17:44:40.045Z,96.30
2018-07-28T17:47:08.464Z,96.20
2018-07-28T17:49:37.473Z,96.20
2018-07-28T17:52:05.889Z,96.30
2018-07-28T17:54:34.501Z,96.50
2018-07-28T17:57:03.036Z,96.10
2018-07-28T17:59:31.511Z,96.10
2018-07-28T18:01:59.874Z,96.30
2018-07-28T18:04:28.488Z,96.50
2018-07-28T18:06:56.936Z,96.30
2018-07-28T18:09:25.361Z,96.80
2018-07-28T18:11:53.859Z,96.70
2018-07-28T18:14:22.288Z,96.50
2018-07-28T18:16:50.873Z,96.50
2018-07-28T18:19:19.356Z,96.60
2018-07-28T18:21:47.809Z,96.50
2018-07-28T18:24:16.229Z,96.60
2018-07-28T18:26:45.020Z,96.70
2018-07-28T18:29:13.461Z,96.90
2018-07-28T18:31:41.882Z,97.00
2018-07-28T18:34:10.272Z,97.30
2018-07-28T18:36:38.703Z,97.40
2018-07-28T18:39:09.300Z,97.60
2018-07-28T18:44:05.974Z,97.80
2018-07-28T18:46:35.232Z,98.10
2018-07-28T18:49:03.665Z,98.30
2018-07-28T18:51:32.181Z,98.10
2018-07-28T18:54:00.688Z,98.10
2018-07-28T18:56:29.191Z,98.20
2018-07-28T19:01:25.776Z,98.30
2018-07-28T19:03:54.378Z,98.30
2018-07-28T19:06:22.838Z,98.30
2018-07-28T19:08:56.942Z,98.00
2018-07-28T19:11:25.976Z,97.80
2018-07-28T19:13:59.689Z,97.70
2018-07-28T19:16:28.168Z,97.70
2018-07-28T19:19:02.204Z,97.80
2018-07-28T19:24:01.572Z,97.80
2018-07-28T19:26:31.280Z,97.80
2018-07-28T19:29:05.212Z,97.60
2018-07-28T19:31:34.006Z,97.40
2018-07-28T19:34:02.418Z,97.40
2018-07-28T19:36:37.309Z,97.40
2018-07-28T19:39:08.266Z,97.40
2018-07-28T19:41:42.143Z,97.50
2018-07-28T19:44:11.433Z,97.60
2018-07-28T19:46:40.078Z,97.70
2018-07-28T19:49:08.903Z,97.80
2018-07-28T19:51:37.418Z,97.80
2018-07-28T19:54:05.823Z,97.80
2018-07-28T19:56:34.779Z,97.90
2018-07-28T20:01:31.555Z,98.10
2018-07-28T20:04:02.807Z,98.10
2018-07-28T20:06:31.326Z,98.20
2018-07-28T20:08:59.764Z,98.40
2018-07-28T20:11:28.603Z,98.20
2018-07-28T20:13:57.020Z,98.00
2018-07-28T20:16:25.561Z,98.00
2018-07-28T20:18:54.269Z,97.90
2018-07-28T20:21:22.672Z,97.70
2018-07-28T20:23:51.169Z,97.80
2018-07-28T20:26:19.565Z,97.60
2018-07-28T20:28:47.984Z,97.50
2018-07-28T20:31:16.501Z,97.90
2018-07-28T20:33:44.936Z,97.70
2018-07-28T20:36:13.441Z,97.60
2018-07-28T20:38:42.210Z,97.70
2018-07-28T20:41:10.654Z,97.30
2018-07-28T20:43:39.277Z,97.40
2018-07-28T20:46:07.936Z,97.20
2018-07-28T20:48:36.491Z,97.00
2018-07-28T20:51:04.972Z,97.10
2018-07-28T20:53:33.559Z,97.10
2018-07-28T20:56:06.028Z,97.10
2018-07-28T20:58:35.152Z,96.80
2018-07-28T21:01:04.156Z,96.40
2018-07-28T21:03:32.910Z,96.20
2018-07-28T21:06:01.448Z,96.10
2018-07-28T21:08:29.892Z,95.80
2018-07-28T21:10:58.847Z,95.70
2018-07-28T21:13:27.296Z,95.50
2018-07-28T21:15:56.330Z,95.70
2018-07-28T21:18:25.861Z,95.50
2018-07-28T21:20:54.256Z,95.50
2018-07-28T21:23:23.126Z,95.70
2018-07-28T21:25:51.541Z,96.00
2018-07-28T21:28:19.959Z,96.20
2018-07-28T21:30:48.744Z,95.90
2018-07-28T21:33:17.429Z,96.00
2018-07-28T21:35:45.842Z,96.00
2018-07-28T21:38:14.376Z,96.20
2018-07-28T21:40:42.882Z,96.50
2018-07-28T21:43:11.527Z,96.80
2018-07-28T21:45:40.060Z,96.80
2018-07-28T21:48:08.464Z,97.20
2018-07-28T21:50:37.119Z,97.30
2018-07-28T21:53:05.767Z,97.70
2018-07-28T21:55:34.178Z,97.80
2018-07-28T21:58:02.966Z,98.00
2018-07-28T22:00:36.783Z,98.30
2018-07-28T22:03:05.249Z,98.30
2018-07-28T22:05:33.741Z,98.50
2018-07-28T22:08:02.157Z,98.50
2018-07-28T22:12:58.822Z,98.80
2018-07-28T22:15:27.341Z,98.90
2018-07-28T22:17:55.753Z,99.30
2018-07-28T22:20:24.157Z,99.50
2018-07-28T22:25:21.060Z,99.90
2018-07-28T22:27:49.468Z,99.90
2018-07-28T22:30:18.243Z,99.90
2018-07-28T22:32:46.689Z,99.90
2018-07-28T22:35:15.116Z,99.90
2018-07-28T22:37:43.624Z,99.90
2018-07-28T22:40:12.021Z,99.90
2018-07-28T22:42:47.585Z,99.90
2018-07-28T22:45:16.400Z,99.90
2018-07-28T22:47:45.360Z,99.90
2018-07-28T22:50:13.795Z,99.90
2018-07-28T22:52:42.659Z,99.90
2018-07-28T22:55:11.032Z,99.90
2018-07-28T22:57:39.466Z,99.90
2018-07-28T23:00:08.401Z,99.90
2018-07-28T23:02:36.972Z,99.90
2018-07-28T23:05:06.085Z,99.90
2018-07-28T23:07:34.509Z,99.90
2018-07-28T23:10:03.040Z,99.90
2018-07-28T23:12:31.446Z,99.90
2018-07-28T23:14:59.909Z,99.90
2018-07-28T23:17:28.328Z,99.90
2018-07-28T23:19:57.122Z,99.90
2018-07-28T23:22:25.780Z,99.90
2018-07-28T23:24:54.222Z,99.90
2018-07-28T23:27:22.896Z,99.90
2018-07-28T23:29:51.384Z,99.90
2018-07-28T23:32:19.768Z,99.90
2018-07-28T23:34:48.196Z,99.90
2018-07-28T23:37:16.612Z,99.90
2018-07-28T23:39:45.036Z,99.90
2018-07-28T23:42:13.464Z,99.90
2018-07-28T23:44:41.886Z,99.90
2018-07-28T23:47:10.402Z,99.90
2018-07-28T23:49:38.793Z,99.90
2018-07-28T23:52:07.293Z,99.90
2018-07-28T23:54:36.219Z,99.90
2018-07-28T23:57:04.610Z,99.90
2018-07-28T23:59:33.168Z,99.90
